Warning: Javascript must be enabled to use all the features on this page!


Page Loading - Please Wait...

Click to hideNews Bulletins

Peak Streamflow for the Nation

USGS 01321000 SACANDAGA RIVER NEAR HOPE NY

Hamilton County, New York
Hydrologic Unit Code 02020002
Latitude  43°21'10", Longitude  74°16'13" NAD83
Drainage area 491  square miles
Gage datum 880.74 feet above NAVD88
Output formats
Table
Graph
Tab-separated file
peakfq (watstore) format
Reselect output format
Water
Year
Date Gage
Height
(feet)
Stream-
flow
(cfs)
1912 1912-04-23 7.40 11,000
1913 1913-03-27 11.00 32,000
1914 1914-04-20 8.60 16,500
1915 1915-04-12 7.50 11,400
1916 1916-05-17 8.50 16,000
1917 1917-06-11 9.00 18,600
1918 1917-10-30 6.70 8,490
1919 1919-04-12 7.20 10,300
1920 1920-04-22 6.30 7,230
1921 1921-07-11 9.30 20,400
1922 1922-04-12 9.30 20,400
1923 1923-04-06 7.21 10,300
1924 1924-04-19 7.40 11,000
1925 1925-03-28 7.75 12,500
1926 1926-04-25 9.00 18,600
1927 1926-11-17 7.00 9,320
1928 1928-04-07 8.20 14,400
1929 1929-03-24 7.60 11,700
1930 1930-01-09 7.20 11,800
1931 1931-04-11 6.35 8,640
1932 1932-04-22 6.20 7,790
1933 1932-10-06 8.22 16,500
1934 1934-04-17 6.95 10,600
1935 1935-07-09 6.932 11,200
1936 1936-03-18 9.402 23,900
1937 1937-05-15 6.41 9,180
1938 1938-03-24 8.13 16,600
1939 1939-04-25 7.132 11,700
1940 1940-05-02 6.832 10,600
1941 1941-04-15 6.93 11,000
1942 1942-06-14 7.74 14,500
1943 1943-04-28 6.852 10,500
1944 1944-04-25 6.772 10,200
1945 1945-07-20 8.84 20,000
1946 1945-10-02 8.242 16,700
1947 1947-06-03 8.21 16,600
1948 1948-03-22 8.24 16,700
1949 1948-12-31 10.55 31,400
1950 1950-04-20 7.04 11,100
1951 1951-03-31 8.48 17,600
1952 1952-04-06 8.21 16,200
1953 1952-12-11 9.36 22,900
1954 1954-04-17 7.502 12,600
1955 1955-04-15 6.972 10,700
1956 1956-04-30 7.78 14,200
1957 1957-01-23 6.152 7,820
1958 1957-12-21 9.10 21,300
1959 1959-01-22 6.612 9,340
1960 1959-11-28 8.50 17,800
1961 1961-04-23 6.852 10,200
1962 1962-04-07 7.88 14,700
1963 1963-04-04 7.36 12,200
1964 1964-03-05 8.342 17,000
1965 1965-04-22 6.322 8,370
1966 1966-05-19 5.562 6,060
1967 1967-04-03 6.77 9,910
1968 1968-03-23 7.31 12,000
1969 1969-04-19 7.83 14,400
1970 1970-04-25 7.08 11,100
1971 1971-05-03 6.27 8,200
1972 1972-05-03 7.55 13,100
1973 1973-03-18 8.09 15,800
1974 1974-04-15 7.09 11,100
1975 1974-12-09 6.44 8,770
1976 1976-04-01 9.45 23,400
1977 1977-03-14 8.76 19,300
1978 1977-10-02 6.56 9,130
1979 1979-03-25 7.98 15,200
1980 1979-11-27 7.93 14,900
1981 1981-02-20 9.272 21,700
1982 1981-10-28 8.67 18,000
1983 1983-05-01 7.75 14,100
1984 1983-12-14 7.75 14,100
1985 1984-12-29 7.05 11,100
1986 1986-03-30 7.22 11,800
1987 1987-03-31 8.47 17,700
1988 1988-04-04 6.39 8,620
1989 1989-03-29 7.33 12,300
1990 1990-04-11 7.172 11,600
1991 1990-12-23 6.94 10,700
1992 1992-05-03 6.70 9,740
1993 1993-04-17 8.88 19,900
1994 1994-04-16 7.82 14,400
1995 1994-12-05 6.46 8,890
1996 1996-01-19 9.29 22,400
1997 1996-11-09 9.16 21,600
1998 1998-01-08 8.90 20,100
1999 1999-04-04 6.51 9,070
2000 2000-03-28 7.172 11,600
2001 2001-04-22 8.05 15,600
2002 2002-04-14 7.88 14,800
2003 2003-03-29 6.62 9,470
2004 2004-05-24 7.96 15,200
2005 2005-04-03 7.60 13,500
2006 2006-06-28 9.96 26,600
2007 2006-11-17 7.79 15,300
2008 2008-04-12 7.57 14,200
2009 2009-04-04 7.46 13,600
2010 2010-03-23 8.33 18,100
2011 2011-04-28 7.83 15,500
2012 2012-03-19 5.03 4,790
2013 2013-04-20 6.76 10,800
2014 2014-04-15 8.39 18,500
2015 2014-12-25 6.53 9,950
2016 2015-10-29 6.66 10,500
2017 2017-02-26 7.30 13,100
2018 2018-04-25 7.85 15,600
2019 2019-04-20 7.72 15,000
?
  Peak Gage-Height Qualification Codes.